Terminal Aerodrome Forecast
Issued by NWS

Home | Current Version | Previous Version | Text Only | Print | Product List | Glossary Off
Versions: 1 2 3 4 5 6 7 8 9 10 11 12 13 14 15 16 17 18 19 20 21

808
FTUS43 KFGF 060515 AAA
TAFBJI
TAF AMD
KBJI 060515Z 0605/0624 27008KT 3SM BR OVC003
     FM061000 20006KT 5SM BR SCT003 BKN250
     FM061700 18008KT P6SM BKN100=

USA.gov is the U.S. government's official web portal to all federal, state and local government web resources and services.